sensor_id;sensor_type;location;lat;lon;timestamp;pressure;altitude;pressure_sealevel;temperature;humidity
48404;BME280;34202;52.536;6.042;2023-07-29T00:01:22;100769.04;;;18.36;97.97
48404;BME280;34202;52.536;6.042;2023-07-29T00:06:23;100765.16;;;18.30;98.35
48404;BME280;34202;52.536;6.042;2023-07-29T00:11:25;100758.41;;;18.25;98.65
48404;BME280;34202;52.536;6.042;2023-07-29T00:16:25;100752.75;;;18.20;98.96
48404;BME280;34202;52.536;6.042;2023-07-29T00:21:26;100753.38;;;18.16;99.14
48404;BME280;34202;52.536;6.042;2023-07-29T00:26:27;100750.88;;;18.10;99.25
48404;BME280;34202;52.536;6.042;2023-07-29T00:31:30;100752.25;;;18.05;99.52
48404;BME280;34202;52.536;6.042;2023-07-29T00:36:31;100745.16;;;18.00;99.57
48404;BME280;34202;52.536;6.042;2023-07-29T00:41:32;100741.41;;;17.94;99.66
48404;BME280;34202;52.536;6.042;2023-07-29T00:46:34;100743.78;;;17.92;99.81
48404;BME280;34202;52.536;6.042;2023-07-29T00:51:36;100736.17;;;17.86;99.83
48404;BME280;34202;52.536;6.042;2023-07-29T00:56:37;100734.30;;;17.82;99.74
48404;BME280;34202;52.536;6.042;2023-07-29T01:01:39;100736.69;;;17.78;99.94
48404;BME280;34202;52.536;6.042;2023-07-29T01:07:06;100733.48;;;17.72;99.98
48404;BME280;34202;52.536;6.042;2023-07-29T01:18:05;100721.05;;;17.63;100.00
48404;BME280;34202;52.536;6.042;2023-07-29T01:23:06;100723.64;;;17.57;100.00
48404;BME280;34202;52.536;6.042;2023-07-29T01:28:07;100725.16;;;17.52;100.00
48404;BME280;34202;52.536;6.042;2023-07-29T01:33:26;100724.35;;;17.49;100.00
48404;BME280;34202;52.536;6.042;2023-07-29T01:38:35;100719.50;;;17.46;100.00
48404;BME280;34202;52.536;6.042;2023-07-29T01:43:37;100713.58;;;17.44;100.00
48404;BME280;34202;52.536;6.042;2023-07-29T01:48:44;100702.42;;;17.40;100.00
48404;BME280;34202;52.536;6.042;2023-07-29T01:53:44;100702.12;;;17.38;100.00
48404;BME280;34202;52.536;6.042;2023-07-29T01:58:45;100706.53;;;17.37;100.00
48404;BME280;34202;52.536;6.042;2023-07-29T02:03:45;100705.70;;;17.35;100.00
48404;BME280;34202;52.536;6.042;2023-07-29T02:08:45;100703.13;;;17.33;100.00
48404;BME280;34202;52.536;6.042;2023-07-29T02:13:46;100703.36;;;17.30;100.00
48404;BME280;34202;52.536;6.042;2023-07-29T02:18:46;100703.05;;;17.28;100.00
48404;BME280;34202;52.536;6.042;2023-07-29T02:23:47;100699.58;;;17.26;100.00
48404;BME280;34202;52.536;6.042;2023-07-29T02:28:47;100692.59;;;17.24;100.00
48404;BME280;34202;52.536;6.042;2023-07-29T02:33:48;100686.64;;;17.23;100.00
48404;BME280;34202;52.536;6.042;2023-07-29T02:38:49;100684.55;;;17.22;100.00
48404;BME280;34202;52.536;6.042;2023-07-29T02:43:50;100688.83;;;17.19;100.00
48404;BME280;34202;52.536;6.042;2023-07-29T02:48:51;100691.91;;;17.15;100.00
48404;BME280;34202;52.536;6.042;2023-07-29T02:53:51;100690.06;;;17.11;100.00
48404;BME280;34202;52.536;6.042;2023-07-29T02:58:51;100685.08;;;17.07;100.00
48404;BME280;34202;52.536;6.042;2023-07-29T03:03:52;100687.45;;;17.03;100.00
48404;BME280;34202;52.536;6.042;2023-07-29T03:08:53;100685.08;;;16.99;100.00
48404;BME280;34202;52.536;6.042;2023-07-29T03:13:53;100680.38;;;16.96;100.00
48404;BME280;34202;52.536;6.042;2023-07-29T03:18:53;100671.27;;;16.95;100.00
48404;BME280;34202;52.536;6.042;2023-07-29T03:23:54;100669.02;;;16.93;100.00
48404;BME280;34202;52.536;6.042;2023-07-29T03:28:54;100665.15;;;16.93;100.00
48404;BME280;34202;52.536;6.042;2023-07-29T03:33:54;100663.05;;;16.92;100.00
48404;BME280;34202;52.536;6.042;2023-07-29T03:38:55;100667.13;;;16.92;100.00
48404;BME280;34202;52.536;6.042;2023-07-29T03:43:55;100657.84;;;16.90;100.00
48404;BME280;34202;52.536;6.042;2023-07-29T03:48:55;100657.17;;;16.89;100.00
48404;BME280;34202;52.536;6.042;2023-07-29T03:53:56;100650.70;;;16.87;100.00
48404;BME280;34202;52.536;6.042;2023-07-29T03:59:06;100651.11;;;16.84;100.00
48404;BME280;34202;52.536;6.042;2023-07-29T04:04:06;100655.02;;;16.81;100.00
48404;BME280;34202;52.536;6.042;2023-07-29T04:09:07;100651.38;;;16.79;100.00
48404;BME280;34202;52.536;6.042;2023-07-29T04:14:08;100645.98;;;16.76;100.00
48404;BME280;34202;52.536;6.042;2023-07-29T04:19:08;100653.05;;;16.74;100.00
48404;BME280;34202;52.536;6.042;2023-07-29T04:24:08;100649.22;;;16.73;100.00
48404;BME280;34202;52.536;6.042;2023-07-29T04:29:09;100648.20;;;16.71;100.00
48404;BME280;34202;52.536;6.042;2023-07-29T04:34:10;100646.09;;;16.72;100.00
48404;BME280;34202;52.536;6.042;2023-07-29T04:39:10;100649.58;;;16.72;100.00
48404;BME280;34202;52.536;6.042;2023-07-29T04:44:10;100642.02;;;16.73;100.00
48404;BME280;34202;52.536;6.042;2023-07-29T04:49:11;100643.20;;;16.75;100.00
48404;BME280;34202;52.536;6.042;2023-07-29T04:54:11;100648.98;;;16.76;100.00
48404;BME280;34202;52.536;6.042;2023-07-29T04:59:12;100653.00;;;16.77;100.00
48404;BME280;34202;52.536;6.042;2023-07-29T05:04:13;100646.45;;;16.79;100.00
48404;BME280;34202;52.536;6.042;2023-07-29T05:09:18;100639.02;;;16.81;100.00
48404;BME280;34202;52.536;6.042;2023-07-29T05:14:18;100648.67;;;16.82;100.00
48404;BME280;34202;52.536;6.042;2023-07-29T05:19:19;100662.88;;;16.84;100.00
48404;BME280;34202;52.536;6.042;2023-07-29T05:24:19;100666.20;;;16.86;100.00
48404;BME280;34202;52.536;6.042;2023-07-29T05:29:20;100675.46;;;16.88;100.00
48404;BME280;34202;52.536;6.042;2023-07-29T05:34:20;100668.23;;;16.90;100.00
48404;BME280;34202;52.536;6.042;2023-07-29T05:39:21;100680.30;;;16.92;100.00
48404;BME280;34202;52.536;6.042;2023-07-29T05:44:21;100676.44;;;16.91;100.00
48404;BME280;34202;52.536;6.042;2023-07-29T05:49:21;100687.13;;;16.93;100.00
48404;BME280;34202;52.536;6.042;2023-07-29T05:54:22;100678.61;;;16.97;100.00
48404;BME280;34202;52.536;6.042;2023-07-29T05:59:22;100676.08;;;17.00;100.00
48404;BME280;34202;52.536;6.042;2023-07-29T06:04:23;100678.42;;;17.06;100.00
48404;BME280;34202;52.536;6.042;2023-07-29T06:09:23;100679.32;;;17.12;100.00
48404;BME280;34202;52.536;6.042;2023-07-29T06:14:25;100689.74;;;17.17;100.00
48404;BME280;34202;52.536;6.042;2023-07-29T06:19:26;100694.92;;;17.22;100.00
48404;BME280;34202;52.536;6.042;2023-07-29T06:24:26;100696.73;;;17.28;100.00
48404;BME280;34202;52.536;6.042;2023-07-29T06:29:26;100700.39;;;17.37;100.00
48404;BME280;34202;52.536;6.042;2023-07-29T06:34:27;100702.77;;;17.48;100.00
48404;BME280;34202;52.536;6.042;2023-07-29T06:39:27;100703.23;;;17.57;100.00
48404;BME280;34202;52.536;6.042;2023-07-29T06:44:28;100697.98;;;17.64;100.00
48404;BME280;34202;52.536;6.042;2023-07-29T06:49:28;100698.89;;;17.76;100.00
48404;BME280;34202;52.536;6.042;2023-07-29T06:54:29;100696.98;;;17.97;100.00
48404;BME280;34202;52.536;6.042;2023-07-29T06:59:29;100689.79;;;18.16;100.00
48404;BME280;34202;52.536;6.042;2023-07-29T07:04:30;100687.14;;;18.29;100.00
48404;BME280;34202;52.536;6.042;2023-07-29T07:09:30;100691.70;;;18.42;100.00
48404;BME280;34202;52.536;6.042;2023-07-29T07:14:30;100683.77;;;18.61;100.00
48404;BME280;34202;52.536;6.042;2023-07-29T07:19:31;100682.30;;;18.81;100.00
48404;BME280;34202;52.536;6.042;2023-07-29T07:24:31;100682.52;;;19.04;100.00
48404;BME280;34202;52.536;6.042;2023-07-29T07:29:32;100684.94;;;19.29;100.00
48404;BME280;34202;52.536;6.042;2023-07-29T07:34:32;100688.70;;;19.54;100.00
48404;BME280;34202;52.536;6.042;2023-07-29T07:39:33;100694.45;;;19.78;100.00
48404;BME280;34202;52.536;6.042;2023-07-29T07:44:33;100701.55;;;19.98;100.00
48404;BME280;34202;52.536;6.042;2023-07-29T07:49:34;100707.67;;;20.25;100.00
48404;BME280;34202;52.536;6.042;2023-07-29T07:54:34;100716.19;;;20.49;100.00
48404;BME280;34202;52.536;6.042;2023-07-29T07:59:35;100721.95;;;20.61;100.00
48404;BME280;34202;52.536;6.042;2023-07-29T08:04:35;100722.36;;;20.70;100.00
48404;BME280;34202;52.536;6.042;2023-07-29T08:09:36;100719.41;;;20.82;100.00
48404;BME280;34202;52.536;6.042;2023-07-29T08:14:36;100710.80;;;21.04;100.00
48404;BME280;34202;52.536;6.042;2023-07-29T08:19:36;100710.29;;;21.21;100.00
48404;BME280;34202;52.536;6.042;2023-07-29T08:24:37;100708.09;;;21.23;100.00
48404;BME280;34202;52.536;6.042;2023-07-29T08:29:38;100710.42;;;21.27;99.96
48404;BME280;34202;52.536;6.042;2023-07-29T08:34:39;100708.20;;;21.43;100.00
48404;BME280;34202;52.536;6.042;2023-07-29T08:39:39;100708.89;;;21.61;99.89
48404;BME280;34202;52.536;6.042;2023-07-29T08:44:41;100705.23;;;21.76;99.44
48404;BME280;34202;52.536;6.042;2023-07-29T08:49:44;100702.80;;;21.92;98.79
48404;BME280;34202;52.536;6.042;2023-07-29T08:54:46;100706.70;;;22.05;97.53
48404;BME280;34202;52.536;6.042;2023-07-29T08:59:46;100704.55;;;22.13;96.58
48404;BME280;34202;52.536;6.042;2023-07-29T09:04:47;100710.34;;;22.23;95.46
48404;BME280;34202;52.536;6.042;2023-07-29T09:09:47;100712.01;;;22.26;94.36
48404;BME280;34202;52.536;6.042;2023-07-29T09:14:51;100714.52;;;22.33;94.28
48404;BME280;34202;52.536;6.042;2023-07-29T09:19:52;100716.02;;;22.44;94.33
48404;BME280;34202;52.536;6.042;2023-07-29T09:24:53;100721.70;;;22.60;94.04
48404;BME280;34202;52.536;6.042;2023-07-29T09:29:57;100722.68;;;22.69;92.45
48404;BME280;34202;52.536;6.042;2023-07-29T09:34:58;100724.19;;;22.75;92.03
48404;BME280;34202;52.536;6.042;2023-07-29T09:39:58;100717.98;;;22.75;90.81
48404;BME280;34202;52.536;6.042;2023-07-29T09:44:59;100724.60;;;22.70;90.23
48404;BME280;34202;52.536;6.042;2023-07-29T09:49:59;100723.98;;;22.76;91.50
48404;BME280;34202;52.536;6.042;2023-07-29T09:55:00;100715.70;;;22.82;90.98
48404;BME280;34202;52.536;6.042;2023-07-29T10:00:00;100715.08;;;22.96;91.05
48404;BME280;34202;52.536;6.042;2023-07-29T10:05:02;100721.63;;;23.15;90.50
48404;BME280;34202;52.536;6.042;2023-07-29T10:10:05;100719.00;;;23.30;89.82
48404;BME280;34202;52.536;6.042;2023-07-29T10:15:06;100723.34;;;23.43;88.83
48404;BME280;34202;52.536;6.042;2023-07-29T10:20:09;100724.67;;;23.52;88.19
48404;BME280;34202;52.536;6.042;2023-07-29T10:25:22;100726.61;;;23.70;88.01
48404;BME280;34202;52.536;6.042;2023-07-29T10:30:24;100725.88;;;23.74;86.37
48404;BME280;34202;52.536;6.042;2023-07-29T10:35:25;100725.52;;;23.78;85.71
48404;BME280;34202;52.536;6.042;2023-07-29T10:40:25;100729.24;;;23.85;85.13
48404;BME280;34202;52.536;6.042;2023-07-29T10:45:26;100734.68;;;23.94;84.27
48404;BME280;34202;52.536;6.042;2023-07-29T10:50:26;100736.50;;;23.97;83.02
48404;BME280;34202;52.536;6.042;2023-07-29T10:55:35;100736.52;;;23.97;82.02
48404;BME280;34202;52.536;6.042;2023-07-29T11:00:41;100737.82;;;23.85;81.09
48404;BME280;34202;52.536;6.042;2023-07-29T11:05:47;100732.08;;;23.82;82.11
48404;BME280;34202;52.536;6.042;2023-07-29T11:11:03;100726.98;;;23.95;83.57
48404;BME280;34202;52.536;6.042;2023-07-29T11:16:05;100730.64;;;24.21;84.71
48404;BME280;34202;52.536;6.042;2023-07-29T11:21:05;100728.95;;;24.47;84.10
48404;BME280;34202;52.536;6.042;2023-07-29T11:26:07;100731.95;;;24.67;82.86
48404;BME280;34202;52.536;6.042;2023-07-29T11:31:07;100722.69;;;24.90;82.41
48404;BME280;34202;52.536;6.042;2023-07-29T11:36:17;100721.65;;;25.09;80.92
48404;BME280;34202;52.536;6.042;2023-07-29T11:41:21;100718.24;;;25.16;78.88
48404;BME280;34202;52.536;6.042;2023-07-29T11:46:22;100724.48;;;25.13;77.27
48404;BME280;34202;52.536;6.042;2023-07-29T11:51:25;100717.64;;;25.27;77.42
48404;BME280;34202;52.536;6.042;2023-07-29T11:56:26;100723.89;;;25.43;76.89
48404;BME280;34202;52.536;6.042;2023-07-29T12:01:27;100731.16;;;25.43;76.58
48404;BME280;34202;52.536;6.042;2023-07-29T12:06:28;100738.29;;;25.37;75.93
48404;BME280;34202;52.536;6.042;2023-07-29T12:11:32;100737.42;;;25.27;75.08
48404;BME280;34202;52.536;6.042;2023-07-29T12:16:42;100734.04;;;25.20;74.72
48404;BME280;34202;52.536;6.042;2023-07-29T12:21:44;100734.09;;;25.19;73.85
48404;BME280;34202;52.536;6.042;2023-07-29T12:26:44;100737.14;;;25.19;73.43
48404;BME280;34202;52.536;6.042;2023-07-29T12:31:47;100746.39;;;25.10;72.84
48404;BME280;34202;52.536;6.042;2023-07-29T12:36:49;100745.30;;;24.94;71.92
48404;BME280;34202;52.536;6.042;2023-07-29T12:41:51;100749.09;;;24.86;73.07
48404;BME280;34202;52.536;6.042;2023-07-29T12:46:52;100751.08;;;24.92;73.61
48404;BME280;34202;52.536;6.042;2023-07-29T12:51:52;100750.68;;;25.03;73.42
48404;BME280;34202;52.536;6.042;2023-07-29T12:56:53;100746.88;;;25.17;74.64
48404;BME280;34202;52.536;6.042;2023-07-29T13:01:53;100743.84;;;25.33;74.48
48404;BME280;34202;52.536;6.042;2023-07-29T13:06:54;100739.90;;;25.50;73.98
48404;BME280;34202;52.536;6.042;2023-07-29T13:11:54;100730.71;;;25.57;72.68
48404;BME280;34202;52.536;6.042;2023-07-29T13:16:54;100731.36;;;25.55;71.93
48404;BME280;34202;52.536;6.042;2023-07-29T13:21:55;100735.08;;;25.65;72.60
48404;BME280;34202;52.536;6.042;2023-07-29T13:26:55;100729.27;;;25.67;71.44
48404;BME280;34202;52.536;6.042;2023-07-29T13:31:56;100725.20;;;25.73;71.58
48404;BME280;34202;52.536;6.042;2023-07-29T13:36:56;100721.86;;;25.81;71.44
48404;BME280;34202;52.536;6.042;2023-07-29T13:41:57;100723.71;;;25.95;70.38
48404;BME280;34202;52.536;6.042;2023-07-29T13:46:57;100727.30;;;25.85;68.90
48404;BME280;34202;52.536;6.042;2023-07-29T13:51:58;100731.86;;;25.81;69.04
48404;BME280;34202;52.536;6.042;2023-07-29T13:56:58;100745.43;;;25.80;69.50
48404;BME280;34202;52.536;6.042;2023-07-29T14:01:58;100751.26;;;25.63;68.69
48404;BME280;34202;52.536;6.042;2023-07-29T14:06:59;100753.35;;;25.35;69.01
48404;BME280;34202;52.536;6.042;2023-07-29T14:11:59;100758.92;;;25.11;70.08
48404;BME280;34202;52.536;6.042;2023-07-29T14:16:59;100760.84;;;24.89;70.33
48404;BME280;34202;52.536;6.042;2023-07-29T14:22:00;100765.41;;;24.67;70.76
48404;BME280;34202;52.536;6.042;2023-07-29T14:27:00;100761.79;;;24.55;71.81
48404;BME280;34202;52.536;6.042;2023-07-29T14:32:01;100760.02;;;24.55;73.12
48404;BME280;34202;52.536;6.042;2023-07-29T14:37:01;100760.19;;;24.62;73.83
48404;BME280;34202;52.536;6.042;2023-07-29T14:42:01;100762.46;;;24.66;73.75
48404;BME280;34202;52.536;6.042;2023-07-29T14:47:02;100762.20;;;24.71;74.13
48404;BME280;34202;52.536;6.042;2023-07-29T14:52:03;100751.95;;;24.86;74.91
48404;BME280;34202;52.536;6.042;2023-07-29T14:57:05;100750.97;;;24.98;73.65
48404;BME280;34202;52.536;6.042;2023-07-29T15:02:06;100758.63;;;24.97;72.81
48404;BME280;34202;52.536;6.042;2023-07-29T15:07:07;100756.00;;;24.94;72.69
48404;BME280;34202;52.536;6.042;2023-07-29T15:12:08;100757.32;;;24.95;73.29
48404;BME280;34202;52.536;6.042;2023-07-29T15:17:08;100751.76;;;25.05;73.65
48404;BME280;34202;52.536;6.042;2023-07-29T15:22:08;100751.15;;;25.14;73.56
48404;BME280;34202;52.536;6.042;2023-07-29T15:27:10;100755.07;;;25.20;73.55
48404;BME280;34202;52.536;6.042;2023-07-29T15:32:11;100740.14;;;25.23;73.04
48404;BME280;34202;52.536;6.042;2023-07-29T15:37:12;100744.91;;;25.27;72.64
48404;BME280;34202;52.536;6.042;2023-07-29T15:42:13;100736.64;;;25.32;72.15
48404;BME280;34202;52.536;6.042;2023-07-29T15:47:13;100735.59;;;25.31;71.44
48404;BME280;34202;52.536;6.042;2023-07-29T15:52:16;100729.56;;;25.24;70.86
48404;BME280;34202;52.536;6.042;2023-07-29T15:57:16;100724.09;;;25.19;70.79
48404;BME280;34202;52.536;6.042;2023-07-29T16:02:17;100724.06;;;25.13;70.45
48404;BME280;34202;52.536;6.042;2023-07-29T16:07:17;100725.98;;;25.02;69.50
48404;BME280;34202;52.536;6.042;2023-07-29T16:12:17;100726.08;;;24.90;69.47
48404;BME280;34202;52.536;6.042;2023-07-29T16:17:18;100723.69;;;24.82;69.03
48404;BME280;34202;52.536;6.042;2023-07-29T16:22:18;100723.14;;;24.73;68.38
48404;BME280;34202;52.536;6.042;2023-07-29T16:27:19;100724.66;;;24.57;67.95
48404;BME280;34202;52.536;6.042;2023-07-29T16:32:20;100721.20;;;24.45;68.03
48404;BME280;34202;52.536;6.042;2023-07-29T16:37:20;100717.56;;;24.37;68.46
48404;BME280;34202;52.536;6.042;2023-07-29T16:42:21;100714.77;;;24.29;68.82
48404;BME280;34202;52.536;6.042;2023-07-29T16:47:21;100717.81;;;24.18;68.38
48404;BME280;34202;52.536;6.042;2023-07-29T16:52:23;100717.28;;;24.07;68.31
48404;BME280;34202;52.536;6.042;2023-07-29T16:57:24;100718.80;;;24.02;68.85
48404;BME280;34202;52.536;6.042;2023-07-29T17:02:24;100714.63;;;23.93;68.59
48404;BME280;34202;52.536;6.042;2023-07-29T17:07:25;100711.20;;;23.84;68.48
48404;BME280;34202;52.536;6.042;2023-07-29T17:12:25;100716.34;;;23.77;67.73
48404;BME280;34202;52.536;6.042;2023-07-29T17:17:25;100725.56;;;23.70;67.64
48404;BME280;34202;52.536;6.042;2023-07-29T17:22:26;100726.49;;;23.62;67.04
48404;BME280;34202;52.536;6.042;2023-07-29T17:27:26;100734.27;;;23.51;67.10
48404;BME280;34202;52.536;6.042;2023-07-29T17:32:27;100735.71;;;23.44;67.31
48404;BME280;34202;52.536;6.042;2023-07-29T17:37:28;100742.29;;;23.37;67.54
48404;BME280;34202;52.536;6.042;2023-07-29T17:42:29;100745.64;;;23.26;67.28
48404;BME280;34202;52.536;6.042;2023-07-29T17:47:29;100755.98;;;23.13;67.00
48404;BME280;34202;52.536;6.042;2023-07-29T17:52:29;100759.25;;;23.04;66.81
48404;BME280;34202;52.536;6.042;2023-07-29T17:57:30;100761.39;;;22.91;66.78
48404;BME280;34202;52.536;6.042;2023-07-29T18:02:30;100759.20;;;22.81;67.07
48404;BME280;34202;52.536;6.042;2023-07-29T18:07:31;100762.26;;;22.73;67.48
48404;BME280;34202;52.536;6.042;2023-07-29T18:12:31;100766.14;;;22.65;67.88
48404;BME280;34202;52.536;6.042;2023-07-29T18:17:32;100771.95;;;22.54;67.81
48404;BME280;34202;52.536;6.042;2023-07-29T18:22:32;100771.92;;;22.43;67.80
48404;BME280;34202;52.536;6.042;2023-07-29T18:27:33;100772.98;;;22.30;67.94
48404;BME280;34202;52.536;6.042;2023-07-29T18:32:33;100770.34;;;22.21;68.20
48404;BME280;34202;52.536;6.042;2023-07-29T18:37:35;100771.70;;;22.14;68.51
48404;BME280;34202;52.536;6.042;2023-07-29T18:42:35;100780.70;;;22.02;68.53
48404;BME280;34202;52.536;6.042;2023-07-29T18:47:35;100787.54;;;21.91;68.96
48404;BME280;34202;52.536;6.042;2023-07-29T18:52:36;100792.95;;;21.80;68.97
48404;BME280;34202;52.536;6.042;2023-07-29T18:57:36;100787.86;;;21.66;68.81
48404;BME280;34202;52.536;6.042;2023-07-29T19:02:37;100790.70;;;21.53;68.76
48404;BME280;34202;52.536;6.042;2023-07-29T19:07:39;100800.80;;;21.43;69.01
48404;BME280;34202;52.536;6.042;2023-07-29T19:12:39;100801.69;;;21.33;69.12
48404;BME280;34202;52.536;6.042;2023-07-29T19:17:40;100806.40;;;21.21;69.08
48404;BME280;34202;52.536;6.042;2023-07-29T19:22:40;100808.97;;;21.09;69.17
48404;BME280;34202;52.536;6.042;2023-07-29T19:27:41;100816.52;;;20.96;69.22
48404;BME280;34202;52.536;6.042;2023-07-29T19:32:41;100818.61;;;20.83;69.57
48404;BME280;34202;52.536;6.042;2023-07-29T19:37:42;100823.72;;;20.69;69.48
48404;BME280;34202;52.536;6.042;2023-07-29T19:42:42;100830.36;;;20.55;69.98
48404;BME280;34202;52.536;6.042;2023-07-29T19:47:42;100829.66;;;20.39;70.19
48404;BME280;34202;52.536;6.042;2023-07-29T19:52:43;100833.05;;;20.27;70.56
48404;BME280;34202;52.536;6.042;2023-07-29T19:57:44;100834.16;;;20.16;71.15
48404;BME280;34202;52.536;6.042;2023-07-29T20:02:44;100833.94;;;20.00;71.69
48404;BME280;34202;52.536;6.042;2023-07-29T20:07:48;100839.05;;;19.90;72.01
48404;BME280;34202;52.536;6.042;2023-07-29T20:12:48;100840.57;;;19.81;72.38
48404;BME280;34202;52.536;6.042;2023-07-29T20:21:31;100841.13;;;19.63;73.05
48404;BME280;34202;52.536;6.042;2023-07-29T20:26:31;100840.58;;;19.45;73.15
48404;BME280;34202;52.536;6.042;2023-07-29T20:31:32;100840.58;;;19.34;73.47
48404;BME280;34202;52.536;6.042;2023-07-29T20:36:32;100835.92;;;19.24;73.93
48404;BME280;34202;52.536;6.042;2023-07-29T20:41:33;100835.31;;;19.14;74.11
48404;BME280;34202;52.536;6.042;2023-07-29T20:46:33;100832.83;;;19.02;74.35
48404;BME280;34202;52.536;6.042;2023-07-29T20:51:33;100838.79;;;18.91;74.59
48404;BME280;34202;52.536;6.042;2023-07-29T20:56:34;100835.06;;;18.78;74.79
48404;BME280;34202;52.536;6.042;2023-07-29T21:01:34;100841.06;;;18.65;75.01
48404;BME280;34202;52.536;6.042;2023-07-29T21:06:35;100839.80;;;18.52;75.18
48404;BME280;34202;52.536;6.042;2023-07-29T21:11:36;100847.57;;;18.38;75.37
48404;BME280;34202;52.536;6.042;2023-07-29T21:16:36;100846.48;;;18.26;75.64
48404;BME280;34202;52.536;6.042;2023-07-29T21:21:36;100843.77;;;18.15;75.94
48404;BME280;34202;52.536;6.042;2023-07-29T21:26:37;100842.95;;;18.04;76.32
48404;BME280;34202;52.536;6.042;2023-07-29T21:31:37;100845.34;;;17.93;76.66
48404;BME280;34202;52.536;6.042;2023-07-29T21:36:37;100844.33;;;17.83;77.06
48404;BME280;34202;52.536;6.042;2023-07-29T21:41:38;100848.73;;;17.74;77.50
48404;BME280;34202;52.536;6.042;2023-07-29T21:46:38;100850.15;;;17.65;78.17
48404;BME280;34202;52.536;6.042;2023-07-29T21:51:38;100854.20;;;17.58;78.81
48404;BME280;34202;52.536;6.042;2023-07-29T21:56:39;100849.43;;;17.51;79.57
48404;BME280;34202;52.536;6.042;2023-07-29T22:01:39;100847.61;;;17.45;80.21
48404;BME280;34202;52.536;6.042;2023-07-29T22:06:39;100849.80;;;17.41;80.56
48404;BME280;34202;52.536;6.042;2023-07-29T22:11:40;100848.02;;;17.35;80.98
48404;BME280;34202;52.536;6.042;2023-07-29T22:16:40;100852.89;;;17.28;81.27
48404;BME280;34202;52.536;6.042;2023-07-29T22:21:40;100853.02;;;17.22;81.49
48404;BME280;34202;52.536;6.042;2023-07-29T22:26:41;100851.26;;;17.13;81.64
48404;BME280;34202;52.536;6.042;2023-07-29T22:31:41;100851.58;;;17.06;82.00
48404;BME280;34202;52.536;6.042;2023-07-29T22:36:42;100856.30;;;16.98;82.19
48404;BME280;34202;52.536;6.042;2023-07-29T22:41:42;100856.80;;;16.91;82.63
48404;BME280;34202;52.536;6.042;2023-07-29T22:46:45;100854.11;;;16.84;83.01
48404;BME280;34202;52.536;6.042;2023-07-29T22:51:46;100853.70;;;16.77;83.27
48404;BME280;34202;52.536;6.042;2023-07-29T22:56:46;100857.89;;;16.69;83.63
48404;BME280;34202;52.536;6.042;2023-07-29T23:01:47;100856.96;;;16.62;84.05
48404;BME280;34202;52.536;6.042;2023-07-29T23:06:47;100857.61;;;16.54;84.37
48404;BME280;34202;52.536;6.042;2023-07-29T23:11:47;100864.21;;;16.49;84.85
48404;BME280;34202;52.536;6.042;2023-07-29T23:16:48;100872.23;;;16.42;85.38
48404;BME280;34202;52.536;6.042;2023-07-29T23:21:48;100876.90;;;16.36;85.83
48404;BME280;34202;52.536;6.042;2023-07-29T23:26:49;100875.73;;;16.32;86.35
48404;BME280;34202;52.536;6.042;2023-07-29T23:31:49;100882.30;;;16.28;86.64
48404;BME280;34202;52.536;6.042;2023-07-29T23:36:49;100880.09;;;16.23;86.97
48404;BME280;34202;52.536;6.042;2023-07-29T23:41:50;100878.94;;;16.19;87.30
48404;BME280;34202;52.536;6.042;2023-07-29T23:46:50;100880.08;;;16.13;87.56
48404;BME280;34202;52.536;6.042;2023-07-29T23:51:51;100879.84;;;16.06;87.87
48404;BME280;34202;52.536;6.042;2023-07-29T23:56:51;100877.98;;;16.00;88.08
